Data for 06/15/2017

Time Sea-Level Adjusted Pressure Absolute Pressure Temperature Relative Humidity Dew Point   
(mb) (inHg) (mb) (inHg) (C) (F) (%) (C) (F)
00:05 1018 30.06 847 25.01 13.2 55.8 52 3.7 38.7
00:10 1018 30.06 847 25.01 12.9 55.2 52 3.3 38
00:15 1018 30.06 847 25.01 13 55.3 52 3.3 38
00:20 1018 30.06 847 25.01 13.1 55.5 52 3.4 38.1
00:25 1018 30.06 847 25.01 13.1 55.6 51 3.2 37.8
00:30 1018 30.06 847 25.01 13.2 55.7 50 3 37.4
00:35 1018 30.06 848 25.04 13.2 55.7 50 2.9 37.2
00:40 1018 30.06 848 25.04 13.1 55.5 53 3.7 38.6
00:45 1018 30.06 848 25.04 12.6 54.6 55 3.7 38.7
00:50 1018 30.06 848 25.04 12.4 54.3 52 2.8 37.1
00:55 1019 30.09 848 25.04 12.5 54.5 50 2.5 36.5
01:00 1019 30.09 848 25.04 12.5 54.5 52 2.9 37.2
01:05 1019 30.09 848 25.04 12.4 54.3 53 3 37.5
01:10 1019 30.09 848 25.04 12.3 54.1 53 3 37.4
01:15 1019 30.09 848 25.04 12.2 54 50 2.1 35.8
01:20 1019 30.09 848 25.04 12.4 54.3 49 2 35.6
01:25 1019 30.09 848 25.04 12.4 54.3 49 2.1 35.7
01:30 1019 30.09 848 25.04 12.3 54.2 48 1.8 35.2
01:35 1019 30.09 848 25.04 12.4 54.3 48 1.7 35
01:40 1019 30.09 848 25.04 12.4 54.3 47 1.6 34.9
01:45 1019 30.09 848 25.04 12.4 54.2 48 1.6 34.9
01:50 1019 30.09 848 25.04 12.3 54.2 46 1.2 34.2
01:55 1019 30.09 848 25.04 12.2 54 48 1.7 35.1
02:00 1019 30.09 848 25.04 12.1 53.7 48 1.6 34.9
02:05 1019 30.09 848 25.04 11.9 53.5 52 2.4 36.2
02:10 1019 30.09 848 25.04 11.5 52.7 52 2.1 35.8
02:15 1019 30.09 848 25.04 11.2 52.2 54 2.2 35.9
02:20 1019 30.09 848 25.04 11 51.7 55 2.3 36.2
02:25 1019 30.09 848 25.04 10.6 51.1 56 2.3 36.1
02:30 1019 30.09 848 25.04 10.3 50.6 58 2.4 36.2
02:35 1019 30.09 848 25.04 10.1 50.1 60 2.7 36.8
02:40 1019 30.09 848 25.04 9.7 49.4 60 2.4 36.3
02:45 1019 30.09 848 25.04 9.7 49.5 59 2.1 35.8
02:50 1019 30.09 848 25.04 9.7 49.5 60 2.3 36.1
02:55 1019 30.09 848 25.04 9.6 49.3 61 2.5 36.4
03:00 1019 30.09 848 25.04 9.3 48.8 62 2.4 36.4
03:05 1019 30.09 848 25.04 9.2 48.6 61 2.2 36
03:10 1019 30.09 848 25.04 9.2 48.5 62 2.3 36.1
03:15 1019 30.09 848 25.04 9.1 48.3 62 2.1 35.8
03:20 1019 30.09 848 25.04 9 48.2 61 1.9 35.4
03:25 1019 30.09 848 25.04 9 48.2 60 1.7 35.1
03:15 1019 30.09 848 25.04 9.1 48.3 62 2.1 35.8
03:20 1019 30.09 848 25.04 9 48.2 61 1.9 35.4
03:25 1019 30.09 848 25.04 9 48.2 60 1.7 35.1
03:30 1019 30.09 848 25.04 9 48.3 61 1.9 35.3
03:35 1019 30.09 848 25.04 9 48.1 62 2 35.7
03:40 1019 30.09 848 25.04 8.8 47.8 62 2 35.6
03:45 1019 30.09 848 25.04 8.6 47.6 63 2 35.6
03:50 1019 30.09 848 25.04 8.5 47.4 63 1.8 35.3
03:55 1019 30.09 848 25.04 8.5 47.2 63 1.8 35.2
04:00 1019 30.09 848 25.04 8.3 47 64 1.9 35.3
04:05 1019 30.09 848 25.04 8 46.4 66 2 35.6
04:10 1019 30.09 848 25.04 7.7 45.8 67 1.9 35.4
04:15 1019 30.09 848 25.04 7.5 45.4 68 2 35.5
04:20 1019 30.09 848 25.04 7.3 45.1 68 1.8 35.2
04:25 1019 30.09 848 25.04 7.4 45.3 67 1.7 35.1
04:30 1019 30.09 848 25.04 7.3 45.1 68 1.8 35.3
04:35 1019 30.09 848 25.04 7.1 44.8 68 1.5 34.8
04:40 1019 30.09 848 25.04 7.2 45 64 0.9 33.6
04:45 1019 30.09 848 25.04 7.4 45.3 62 0.6 33.2
04:50 1019 30.09 848 25.04 7.6 45.6 62 0.8 33.5
04:55 1019 30.09 848 25.04 7.6 45.6 63 1.1 33.9
05:00 1019 30.09 848 25.04 7.3 45.2 62 0.5 32.9
05:05 1019 30.09 848 25.04 7.5 45.5 63 1 33.8
05:10 1019 30.09 848 25.04 7 44.7 64 0.7 33.3
05:15 1019 30.09 848 25.04 7.2 45 61 0.3 32.5
05:20 1019 30.09 848 25.04 7.4 45.4 62 0.7 33.3
05:25 1019 30.09 848 25.04 7.4 45.3 63 0.9 33.7
05:30 1019 30.09 848 25.04 7.1 44.8 65 0.9 33.7
05:35 1019 30.09 848 25.04 7 44.6 65 0.8 33.5
05:40 1019 30.09 849 25.07 7 44.5 64 0.7 33.3
05:45 1019 30.09 848 25.04 6.9 44.4 65 0.9 33.5
05:50 1019 30.09 848 25.04 6.7 44.1 66 0.8 33.5
05:55 1019 30.09 849 25.07 6.8 44.2 65 0.6 33.1
06:00 1019 30.09 849 25.07 7 44.6 65 0.8 33.5
06:05 1019 30.09 849 25.07 7.1 44.8 64 0.7 33.2
06:10 1019 30.09 849 25.07 7.3 45.1 64 0.8 33.5
06:15 1019 30.09 849 25.07 7.4 45.3 63 0.8 33.5
06:20 1019 30.09 849 25.07 7.4 45.3 64 1.1 33.9
06:25 1019 30.09 849 25.07 7.5 45.4 64 1 33.8
06:30 1019 30.09 849 25.07 7.6 45.6 63 1.1 34
06:35 1019 30.09 849 25.07 7.6 45.7 62 0.9 33.5
06:40 1019 30.09 849 25.07 7.7 45.8 63 1.1 33.9
06:45 1020 30.12 849 25.07 7.8 46.1 62 1 33.9
06:50 1020 30.12 849 25.07 8 46.4 61 1.1 33.9
06:55 1020 30.12 849 25.07 8.3 47 58 0.5 32.9
07:00 1020 30.12 849 25.07 8.9 47.9 55 0.2 32.4
07:05 1020 30.12 849 25.07 9.1 48.4 55 0.6 33
07:10 1020 30.12 849 25.07 9.3 48.8 55 0.8 33.5
07:15 1020 30.12 849 25.07 9.4 48.9 55 0.9 33.6
07:20 1020 30.12 849 25.07 9.6 49.2 56 1.3 34.3
07:25 1020 30.12 849 25.07 9.9 49.8 55 1.4 34.5
07:30 1020 30.12 849 25.07 10 49.9 57 1.8 35.2
07:35 1020 30.12 849 25.07 10.2 50.4 56 1.9 35.4
07:40 1020 30.12 849 25.07 10.5 50.9 54 1.8 35.2
07:45 1020 30.12 849 25.07 10.4 50.7 57 2.3 36.1
07:50 1020 30.12 849 25.07 10.8 51.4 55 2.2 36
07:55 1020 30.12 849 25.07 11.5 52.8 52 2.1 35.8
08:00 1020 30.12 849 25.07 12.3 54.1 47 1.2 34.2
08:05 1020 30.12 849 25.07 12.7 54.9 47 1.8 35.3
08:10 1020 30.12 849 25.07 13.3 55.9 44 1.2 34.2
08:15 1020 30.12 849 25.07 13.5 56.2 42 0.8 33.4
08:20 1020 30.12 849 25.07 13.8 56.9 41 0.8 33.5
08:25 1020 30.12 849 25.07 13.5 56.2 42 0.8 33.4
08:30 1020 30.12 849 25.07 13.4 56 44 1.5 34.7
08:35 1020 30.12 849 25.07 13.6 56.5 42 1 33.8
08:40 1020 30.12 849 25.07 13.6 56.5 43 1.2 34.2
08:45 1020 30.12 849 25.07 13.8 56.9 43 1.7 35
08:50 1020 30.12 849 25.07 13.7 56.6 42 1.2 34.1
08:55 1020 30.12 849 25.07 14.1 57.4 40 0.9 33.6
09:00 1020 30.12 849 25.07 14.5 58 35 -0.8 30.6
09:05 1020 30.12 849 25.07 14.8 58.6 32 -1.6 29.2
09:10 1020 30.12 849 25.07 14.9 58.7 35 -0.4 31.3
09:15 1020 30.12 849 25.07 15.1 59.1 34 -0.5 31.1
09:20 1020 30.12 849 25.07 15.3 59.5 33 -0.6 30.9
09:25 1020 30.12 849 25.07 15.7 60.3 32 -0.7 30.7
11:25 1019 30.09 848 25.04 16.8 62.2 33 0.7 33.3
09:30 1020 30.12 849 25.07 15.8 60.4 32 -0.7 30.7
09:35 1019 30.09 849 25.07 15.3 59.5 34 -0.5 31.1
09:40 1019 30.09 849 25.07 15.6 60.2 33 -0.6 30.9
09:45 1020 30.12 849 25.07 15.6 60.1 34 -0.2 31.6
09:50 1019 30.09 849 25.07 15.9 60.6 32 -0.8 30.5
09:55 1020 30.12 849 25.07 16 60.7 33 -0.3 31.5
10:00 1019 30.09 849 25.07 15.6 60.1 33 -0.4 31.3
10:05 1019 30.09 849 25.07 16 60.8 32 -0.4 31.3
10:10 1019 30.09 849 25.07 16.4 61.4 32 -0.1 31.8
10:15 1019 30.09 849 25.07 16.5 61.8 31 -0.6 30.8
10:20 1019 30.09 849 25.07 16.9 62.4 30 -0.7 30.8
10:25 1019 30.09 849 25.07 16.7 62.1 32 -0.1 31.8
10:30 1019 30.09 848 25.04 15.9 60.5 32 -0.5 31.1
10:35 1019 30.09 848 25.04 16.1 61 31 -0.8 30.6
10:40 1019 30.09 848 25.04 16.6 61.9 31 -0.3 31.4
10:45 1019 30.09 848 25.04 15.9 60.5 33 -0.2 31.6
10:50 1019 30.09 848 25.04 15.8 60.4 33 -0.2 31.7
10:55 1019 30.09 848 25.04 16.1 60.9 33 -0.1 31.8
11:00 1019 30.09 848 25.04 16.7 62 32 0 32
11:05 1019 30.09 848 25.04 17.1 62.7 31 0 32
11:10 1019 30.09 848 25.04 17.3 63.2 32 0.8 33.4
11:15 1019 30.09 848 25.04 17.5 63.4 33 1 33.8
11:20 1019 30.09 848 25.04 17.5 63.4 33 1.3 34.4
11:30 1019 30.09 848 25.04 16.3 61.3 34 0.3 32.5
11:35 1019 30.09 848 25.04 16.1 61 35 0.7 33.3
11:40 1019 30.09 848 25.04 16.5 61.8 34 0.8 33.5
11:45 1019 30.09 848 25.04 16.9 62.4 33 0.8 33.5
11:50 1019 30.09 848 25.04 16.6 61.8 34 0.7 33.3
11:55 1019 30.09 848 25.04 17.1 62.8 32 0.3 32.5
12:00 1019 30.09 848 25.04 16.7 62 33 0.6 33.1
12:05 1019 30.09 848 25.04 17.2 63 32 0.7 33.2
12:10 1019 30.09 848 25.04 18.6 65.5 29 0.4 32.7
12:15 1019 30.09 848 25.04 19.3 66.7 28 0.7 33.2
12:20 1019 30.09 848 25.04 19.2 66.5 29 1.1 33.9
12:25 1019 30.09 848 25.04 19.2 66.5 29 0.8 33.4
12:30 1019 30.09 848 25.04 19.2 66.5 30 1.3 34.3
12:35 1019 30.09 848 25.04 18.7 65.7 30 0.9 33.6
12:40 1019 30.09 848 25.04 19.4 66.8 29 0.8 33.4
12:45 1019 30.09 848 25.04 19.6 67.3 29 1.4 34.5
12:50 1019 30.09 848 25.04 19.5 67.1 30 1.7 35
12:55 1019 30.09 848 25.04 19.3 66.8 30 1.5 34.6
13:00 1019 30.09 848 25.04 19 66.3 31 1.6 34.8
13:05 1019 30.09 848 25.04 18.5 65.2 32 1.4 34.5
13:10 1019 30.09 848 25.04 18.3 65 31 1.3 34.3
13:15 1019 30.09 848 25.04 18.8 65.8 31 1.4 34.5
13:20 1018 30.06 848 25.04 18.1 64.6 32 1.4 34.5
13:25 1018 30.06 848 25.04 17.9 64.3 30 0.4 32.8
13:30 1018 30.06 848 25.04 18 64.5 30 0.4 32.8
13:35 1018 30.06 848 25.04 17.5 63.5 32 0.8 33.4
13:40 1018 30.06 848 25.04 17.4 63.4 32 0.8 33.4
13:45 1018 30.06 848 25.04 17.7 63.8 32 1 33.8
13:50 1018 30.06 848 25.04 18 64.4 32 1.2 34.1
13:55 1018 30.06 848 25.04 18.4 65.2 32 1.5 34.7
14:00 1018 30.06 848 25.04 18.6 65.5 31 1.1 33.9
14:05 1018 30.06 848 25.04 17.9 64.3 32 1.3 34.3
14:10 1018 30.06 848 25.04 18.2 64.8 33 1.6 35
14:15 1018 30.06 848 25.04 18.3 65 34 2.5 36.5
14:20 1018 30.06 848 25.04 18.2 64.7 36 3 37.4
14:25 1018 30.06 848 25.04 17.9 64.3 40 4.2 39.5
14:30 1018 30.06 848 25.04 17.3 63.1 42 4.4 39.9
14:35 1018 30.06 848 25.04 17.1 62.8 46 5.4 41.8
14:40 1018 30.06 848 25.04 17.3 63.1 43 4.8 40.7
14:45 1018 30.06 848 25.04 17.4 63.4 40 3.7 38.6
14:50 1018 30.06 848 25.04 17.5 63.5 39 3.5 38.4
14:55 1018 30.06 848 25.04 17.5 63.5 38 3 37.4
15:00 1018 30.06 848 25.04 17.5 63.6 38 3.2 37.8
15:05 1018 30.06 848 25.04 17.8 64 37 3.2 37.7
15:10 1018 30.06 848 25.04 18 64.4 38 3.7 38.7
15:15 1018 30.06 848 25.04 18 64.4 40 4.2 39.5
15:20 1018 30.06 848 25.04 17.9 64.2 41 4.6 40.2
15:25 1018 30.06 848 25.04 17.8 64.1 40 4.2 39.6
15:30 1018 30.06 848 25.04 17.6 63.7 41 4.2 39.6
15:35 1018 30.06 848 25.04 17.6 63.6 41 4.3 39.8
15:40 1018 30.06 848 25.04 17.6 63.6 41 4.4 40
15:45 1018 30.06 848 25.04 17.4 63.3 45 5.6 42
15:50 1018 30.06 848 25.04 16.6 61.9 52 6.8 44.2
15:55 1018 30.06 848 25.04 15.8 60.4 53 6.3 43.3
16:00 1018 30.06 847 25.01 15.6 60 52 5.9 42.6
16:05 1018 30.06 847 25.01 15.5 59.9 53 6.1 43
16:10 1018 30.06 847 25.01 15.7 60.2 50 5.3 41.5
16:15 1018 30.06 847 25.01 15.6 60.1 52 5.8 42.4
16:20 1018 30.06 847 25.01 15.8 60.4 50 5.5 42
16:25 1018 30.06 847 25.01 15.9 60.7 50 5.8 42.4
16:30 1018 30.06 847 25.01 16.2 61.2 50 5.8 42.4
16:35 1018 30.06 847 25.01 16.6 61.8 46 5.2 41.3
16:40 1018 30.06 847 25.01 16.2 61.2 48 5.3 41.6
16:45 1018 30.06 847 25.01 16.3 61.4 47 5.2 41.3
16:50 1018 30.06 847 25.01 16.7 62 46 5.1 41.1
16:55 1018 30.06 847 25.01 16.8 62.2 46 5.1 41.2
17:00 1018 30.06 847 25.01 16.6 61.9 46 5.2 41.3
17:05 1018 30.06 847 25.01 16.5 61.6 47 5.3 41.5
17:10 1018 30.06 847 25.01 16.6 61.9 45 4.9 40.7
17:15 1018 30.06 847 25.01 16.7 62 46 5 41.1
17:20 1018 30.06 847 25.01 16.7 62 46 5.2 41.3
17:25 1018 30.06 847 25.01 16.7 62.1 45 4.8 40.6
17:30 1018 30.06 847 25.01 16.7 62.1 44 4.7 40.4
17:35 1018 30.06 847 25.01 16.7 62.1 45 4.9 40.9
17:40 1018 30.06 847 25.01 16.6 61.8 47 5.4 41.7
17:45 1018 30.06 847 25.01 16.3 61.3 49 5.5 42
17:50 1018 30.06 847 25.01 16.2 61.2 48 5.4 41.7
17:55 1018 30.06 847 25.01 16.4 61.6 47 5.2 41.4
18:00 1018 30.06 847 25.01 16.4 61.5 49 5.8 42.5
18:05 1018 30.06 847 25.01 16.2 61.1 47 5 41
18:10 1017 30.03 847 25.01 16.4 61.5 47 5 41
18:15 1017 30.03 847 25.01 16.4 61.5 46 5 40.9
18:20 1017 30.03 847 25.01 16.8 62.2 45 4.8 40.6
18:25 1017 30.03 847 25.01 17 62.6 45 5.1 41.2
18:30 1017 30.03 847 25.01 17 62.6 45 5 41.1
18:35 1017 30.03 847 25.01 17.1 62.8 45 5.1 41.2
18:40 1017 30.03 846 24.98 17.3 63.2 45 5.5 41.9
18:45 1017 30.03 846 24.98 17.3 63.2 45 5.5 42
18:50 1017 30.03 846 24.98 17.3 63.2 45 5.4 41.6
18:55 1017 30.03 846 24.98 17.3 63.1 45 5.2 41.3
19:00 1017 30.03 846 24.98 17.2 63 46 5.7 42.2
19:05 1017 30.03 846 24.98 17.4 63.2 44 5.1 41.2
19:10 1017 30.03 846 24.98 17.5 63.6 44 5.4 41.7
19:15 1017 30.03 846 24.98 17.6 63.8 44 5.5 41.9
19:20 1017 30.03 846 24.98 17.8 64 45 5.8 42.4
19:25 1017 30.03 846 24.98 17.7 63.9 45 5.8 42.4
19:30 1017 30.03 846 24.98 17.6 63.7 46 6 42.7
19:35 1017 30.03 846 24.98 17.4 63.3 47 6.2 43.2
19:40 1017 30.03 846 24.98 17.3 63.1 48 6.2 43.1
19:45 1017 30.03 846 24.98 17.3 63.1 48 6.4 43.5
19:50 1017 30.03 847 25.01 17.2 63 49 6.4 43.5
19:55 1017 30.03 846 24.98 17.1 62.7 49 6.4 43.5
20:00 1017 30.03 846 24.98 17 62.5 49 6.4 43.6
20:05 1017 30.03 847 25.01 16.9 62.5 48 6.1 42.9
20:10 1017 30.03 847 25.01 16.9 62.4 48 6 42.7
20:15 1017 30.03 846 24.98 16.8 62.3 48 5.9 42.6
20:20 1017 30.03 846 24.98 16.8 62.2 48 5.9 42.6
20:25 1017 30.03 846 24.98 16.8 62.2 48 5.9 42.7
20:30 1017 30.03 846 24.98 16.7 62.1 49 6 42.7
20:35 1017 30.03 846 24.98 16.7 62.1 49 6.1 42.9
20:40 1017 30.03 846 24.98 16.7 62 49 6.1 43
20:45 1017 30.03 846 24.98 16.6 61.9 50 6.4 43.5
20:50 1017 30.03 846 24.98 16.6 61.8 50 6.2 43.2
20:55 1017 30.03 846 24.98 16.5 61.7 51 6.3 43.4
21:00 1017 30.03 846 24.98 16.4 61.5 52 6.6 43.8
21:05 1017 30.03 846 24.98 16.4 61.5 51 6.4 43.5
21:10 1017 30.03 846 24.98 16.1 61 56 7.5 45.4
21:15 1017 30.03 846 24.98 15.8 60.5 56 7.2 45
21:20 1017 30.03 846 24.98 15.8 60.4 56 7.2 45
21:25 1017 30.03 846 24.98 15.8 60.5 57 7.3 45.2
21:30 1017 30.03 846 24.98 15.8 60.4 57 7.4 45.4
21:35 1017 30.03 846 24.98 15.8 60.4 57 7.3 45.1
21:40 1017 30.03 846 24.98 15.6 60.1 60 7.9 46.1
21:45 1017 30.03 846 24.98 15.4 59.7 61 8 46.3
21:50 1017 30.03 846 24.98 15.1 59.2 63 8.1 46.6
21:55 1017 30.03 846 24.98 14.9 58.9 63 8 46.4
22:00 1017 30.03 846 24.98 14.7 58.5 65 8.4 47.1
22:05 1017 30.03 846 24.98 14.7 58.5 63 7.9 46.3
22:10 1017 30.03 846 24.98 14.6 58.3 64 8 46.3
22:15 1017 30.03 846 24.98 14.3 57.8 67 8.3 47
22:20 1017 30.03 846 24.98 14.2 57.5 68 8.5 47.3
22:25 1017 30.03 846 24.98 14.1 57.4 68 8.4 47.1
22:30 1017 30.03 846 24.98 14.1 57.4 69 8.5 47.3
22:35 1017 30.03 846 24.98 14.1 57.3 69 8.5 47.3
22:40 1017 30.03 846 24.98 14 57.2 70 8.6 47.5
22:45 1017 30.03 846 24.98 14.1 57.4 67 8.1 46.5
22:50 1017 30.03 846 24.98 14.3 57.8 65 7.9 46.2
22:55 1017 30.03 846 24.98 14.4 57.9 67 8.3 47
23:00 1017 30.03 846 24.98 14.3 57.7 67 8.4 47.1
23:05 1017 30.03 847 25.01 14.2 57.5 71 9.1 48.3
23:10 1017 30.03 847 25.01 14.2 57.5 72 9.2 48.5
23:15 1017 30.03 846 24.98 14.1 57.4 70 8.7 47.6
23:20 1017 30.03 846 24.98 14.1 57.4 75 9.8 49.6
23:25 1017 30.03 846 24.98 14 57.2 75 9.6 49.3
23:30 1017 30.03 847 25.01 13.9 57 69 8.3 47
23:35 1017 30.03 847 25.01 14.1 57.3 70 8.8 47.9
23:40 1017 30.03 847 25.01 14 57.3 68 8.3 47
23:45 1017 30.03 847 25.01 14 57.1 70 8.6 47.4
23:50 1017 30.03 846 24.98 13.8 56.9 69 8.2 46.8
23:55 1017 30.03 846 24.98 13.8 56.9 68 8.2 46.8
24:00 1017 30.03 846 24.98 13.8 56.8 72 8.9 48